createdAt,value
2023-04-08T00:00:30.302Z,25.88
2023-04-08T00:02:57.186Z,28.23
2023-04-08T00:05:24.205Z,27.95
2023-04-08T00:07:51.230Z,24.10
2023-04-08T00:10:18.358Z,26.42
2023-04-08T00:12:45.286Z,25.23
2023-04-08T00:15:12.077Z,24.48
2023-04-08T00:17:39.015Z,23.70
2023-04-08T00:20:06.797Z,24.35
2023-04-08T00:22:33.635Z,24.38
2023-04-08T00:25:00.727Z,26.95
2023-04-08T00:27:27.505Z,26.90
2023-04-08T00:29:54.349Z,25.05
2023-04-08T00:32:21.473Z,24.92
2023-04-08T00:34:49.416Z,25.08
2023-04-08T00:37:16.234Z,26.77
2023-04-08T00:39:42.982Z,27.70
2023-04-08T00:42:09.902Z,29.45
2023-04-08T00:44:37.153Z,28.17
2023-04-08T00:47:04.638Z,28.27
2023-04-08T00:49:32.106Z,26.52
2023-04-08T00:52:00.434Z,27.83
2023-04-08T00:54:27.205Z,27.40
2023-04-08T00:56:54.086Z,27.67
2023-04-08T00:59:21.089Z,28.33
2023-04-08T01:02:15.680Z,34.72
2023-04-08T01:05:26.124Z,36.65
2023-04-08T01:07:53.107Z,35.38
2023-04-08T01:10:31.290Z,39.33
2023-04-08T01:13:05.821Z,31.30
2023-04-08T01:15:38.808Z,62.88
2023-04-08T01:18:15.561Z,47.17
2023-04-08T01:20:47.053Z,58.85
2023-04-08T01:23:42.837Z,35.83
2023-04-08T01:26:21.317Z,61.85
2023-04-08T01:28:52.016Z,91.80
2023-04-08T01:31:20.305Z,66.03
2023-04-08T01:33:50.359Z,45.58
2023-04-08T01:36:20.543Z,81.40
2023-04-08T01:38:49.456Z,47.60
2023-04-08T01:41:18.428Z,104.85
2023-04-08T01:43:46.561Z,136.02
2023-04-08T01:46:15.647Z,44.38
2023-04-08T01:48:43.575Z,64.22
2023-04-08T01:51:12.588Z,46.10
2023-04-08T01:53:39.650Z,61.97
2023-04-08T01:56:12.609Z,54.13
2023-04-08T01:58:52.569Z,69.30
2023-04-08T02:01:25.308Z,97.72
2023-04-08T02:03:57.512Z,52.17
2023-04-08T02:06:26.588Z,49.05
2023-04-08T02:08:54.586Z,52.08
2023-04-08T02:11:21.865Z,55.05
2023-04-08T02:13:49.192Z,76.35
2023-04-08T02:16:44.272Z,39.20
2023-04-08T02:19:38.315Z,68.53
2023-04-08T02:22:24.293Z,59.08
2023-04-08T02:24:51.991Z,44.92
2023-04-08T02:27:20.229Z,58.92
2023-04-08T02:29:49.664Z,32.80
2023-04-08T02:32:17.589Z,40.22
2023-04-08T02:34:47.445Z,38.58
2023-04-08T02:37:14.561Z,28.95
2023-04-08T02:39:41.413Z,57.42
2023-04-08T02:42:11.941Z,45.83
2023-04-08T02:44:38.902Z,40.92
2023-04-08T02:47:05.644Z,40.58
2023-04-08T02:49:35.017Z,36.15
2023-04-08T02:52:02.111Z,31.38
2023-04-08T02:54:28.884Z,39.50
2023-04-08T02:56:55.981Z,35.42
2023-04-08T02:59:22.732Z,24.08
2023-04-08T03:01:49.837Z,14.93
2023-04-08T03:04:16.668Z,36.90
2023-04-08T03:06:43.506Z,15.65
2023-04-08T03:09:10.372Z,22.33
2023-04-08T03:11:37.147Z,28.65
2023-04-08T03:14:03.901Z,27.88
2023-04-08T03:16:30.811Z,19.45
2023-04-08T03:18:57.643Z,42.03
2023-04-08T03:21:24.704Z,16.38
2023-04-08T03:23:51.434Z,28.52
2023-04-08T03:26:18.256Z,43.55
2023-04-08T03:28:45.144Z,21.05
2023-04-08T03:31:12.034Z,29.75
2023-04-08T03:33:38.822Z,23.83
2023-04-08T03:36:06.784Z,29.98
2023-04-08T03:38:33.559Z,38.15
2023-04-08T03:41:00.516Z,30.00
2023-04-08T03:43:27.622Z,32.78
2023-04-08T03:45:56.136Z,33.65
2023-04-08T03:48:23.400Z,34.63
2023-04-08T03:50:50.280Z,31.30
2023-04-08T03:53:17.058Z,30.27
2023-04-08T03:55:43.809Z,31.67
2023-04-08T03:58:10.713Z,26.25
2023-04-08T04:00:37.509Z,24.90
2023-04-08T04:03:04.417Z,31.45
2023-04-08T04:05:31.274Z,29.92
2023-04-08T04:07:58.466Z,31.30
2023-04-08T04:10:25.413Z,72.57
2023-04-08T04:12:53.283Z,24.95
2023-04-08T04:15:20.088Z,29.02
2023-04-08T04:17:50.768Z,56.90
2023-04-08T04:20:18.752Z,31.38
2023-04-08T04:22:45.588Z,45.58
2023-04-08T04:25:12.380Z,34.85
2023-04-08T04:27:39.224Z,38.72
2023-04-08T04:30:07.492Z,31.83
2023-04-08T04:32:34.298Z,69.05
2023-04-08T04:35:01.428Z,31.48
2023-04-08T04:37:28.242Z,30.40
2023-04-08T04:39:55.305Z,45.00
2023-04-08T04:42:22.065Z,41.00
2023-04-08T04:44:49.238Z,34.63
2023-04-08T04:47:16.515Z,46.70
2023-04-08T04:49:43.299Z,59.65
2023-04-08T04:52:10.083Z,44.00
2023-04-08T04:54:36.951Z,29.02
2023-04-08T04:57:03.851Z,29.77
2023-04-08T04:59:30.676Z,27.95
2023-04-08T05:01:57.659Z,32.25
2023-04-08T05:04:25.871Z,31.90
2023-04-08T05:06:52.823Z,31.52
2023-04-08T05:09:19.649Z,29.38
2023-04-08T05:11:46.442Z,27.98
2023-04-08T05:14:13.261Z,29.30
2023-04-08T05:16:40.730Z,28.08
2023-04-08T05:19:07.729Z,31.95
2023-04-08T05:21:34.515Z,36.58
2023-04-08T05:24:01.254Z,35.22
2023-04-08T05:26:28.127Z,31.67
2023-04-08T05:28:54.950Z,23.92
2023-04-08T05:31:21.905Z,20.38
2023-04-08T05:33:48.887Z,19.70
2023-04-08T05:36:16.012Z,16.50
2023-04-08T05:38:44.188Z,20.15
2023-04-08T05:41:11.405Z,18.42
2023-04-08T05:43:38.203Z,18.00
2023-04-08T05:46:10.219Z,16.45
2023-04-08T05:48:37.428Z,15.05
2023-04-08T05:51:04.397Z,15.93
2023-04-08T05:53:31.400Z,16.83
2023-04-08T05:55:58.352Z,16.40
2023-04-08T05:58:25.316Z,16.05
2023-04-08T06:00:52.212Z,16.05
2023-04-08T06:03:20.717Z,17.85
2023-04-08T06:05:47.831Z,17.08
2023-04-08T06:08:14.576Z,17.85
2023-04-08T06:10:48.115Z,16.67
2023-04-08T06:13:15.945Z,19.55
2023-04-08T06:15:42.857Z,17.08
2023-04-08T06:18:09.631Z,18.90
2023-04-08T06:20:36.763Z,18.80
2023-04-08T06:23:03.516Z,15.90
2023-04-08T06:25:30.346Z,18.10
2023-04-08T06:27:57.120Z,15.30
2023-04-08T06:30:23.863Z,16.20
2023-04-08T06:32:50.926Z,17.38
2023-04-08T06:35:18.095Z,16.88
2023-04-08T06:37:44.905Z,16.50
2023-04-08T06:40:11.966Z,16.13
2023-04-08T06:42:40.732Z,16.67
2023-04-08T06:45:17.267Z,17.05
2023-04-08T06:47:44.089Z,18.40
2023-04-08T06:50:11.259Z,22.45
2023-04-08T06:52:38.041Z,15.90
2023-04-08T06:55:05.548Z,17.85
2023-04-08T06:57:32.323Z,18.13
2023-04-08T07:00:00.230Z,17.40
2023-04-08T07:02:27.147Z,18.38
2023-04-08T07:04:54.021Z,17.67
2023-04-08T07:07:21.088Z,17.73
2023-04-08T07:09:47.840Z,18.83
2023-04-08T07:12:14.623Z,17.80
2023-04-08T07:14:41.431Z,17.63
2023-04-08T07:17:08.427Z,22.13
2023-04-08T07:19:35.997Z,19.95
2023-04-08T07:22:02.938Z,18.10
2023-04-08T07:24:29.978Z,16.60
2023-04-08T07:26:57.011Z,17.45
2023-04-08T07:29:23.855Z,16.45
2023-04-08T07:31:51.658Z,16.15
2023-04-08T07:34:18.548Z,15.82
2023-04-08T07:36:45.706Z,15.07
2023-04-08T07:39:12.492Z,17.40
2023-04-08T07:41:39.274Z,16.40
2023-04-08T07:44:06.389Z,16.38
2023-04-08T07:46:38.743Z,14.68
2023-04-08T07:49:05.665Z,14.52
2023-04-08T07:51:32.526Z,14.60
2023-04-08T07:54:00.129Z,13.88
2023-04-08T07:56:27.223Z,13.55
2023-04-08T07:58:54.549Z,16.30
2023-04-08T08:01:23.531Z,14.65
2023-04-08T08:03:53.906Z,15.25
2023-04-08T08:06:21.732Z,14.25
2023-04-08T08:08:48.605Z,14.15
2023-04-08T08:11:15.493Z,16.50
2023-04-08T08:13:42.484Z,14.20
2023-04-08T08:16:11.384Z,15.73
2023-04-08T08:18:40.186Z,14.25
2023-04-08T08:21:08.427Z,16.08
2023-04-08T08:23:35.429Z,14.70
2023-04-08T08:26:07.776Z,14.23
2023-04-08T08:28:34.911Z,13.15
2023-04-08T08:31:03.559Z,12.45
2023-04-08T08:33:30.466Z,12.80
2023-04-08T08:35:58.105Z,12.90
2023-04-08T08:38:25.996Z,13.98
2023-04-08T08:40:57.385Z,15.48
2023-04-08T08:43:29.153Z,16.17
2023-04-08T08:45:56.406Z,14.68
2023-04-08T08:48:23.294Z,15.52
2023-04-08T08:50:50.368Z,14.43
2023-04-08T08:53:17.495Z,13.98
2023-04-08T08:56:15.720Z,16.17
2023-04-08T08:58:31.841Z,14.30
2023-04-08T09:00:58.661Z,14.85
2023-04-08T09:03:28.650Z,14.48
2023-04-08T09:06:01.920Z,13.20
2023-04-08T09:08:37.393Z,14.45
2023-04-08T09:11:23.693Z,15.55
2023-04-08T09:13:50.665Z,13.05
2023-04-08T09:16:19.758Z,12.70
2023-04-08T09:18:48.994Z,14.23
2023-04-08T09:21:24.661Z,12.65
2023-04-08T09:23:53.038Z,12.27
2023-04-08T09:26:24.505Z,14.00
2023-04-08T09:29:24.164Z,12.10
2023-04-08T09:32:01.192Z,13.05
2023-04-08T09:34:30.770Z,12.02
2023-04-08T09:36:57.677Z,11.60
2023-04-08T09:39:24.775Z,12.50
2023-04-08T09:41:52.819Z,11.50
2023-04-08T09:44:22.049Z,13.48
2023-04-08T09:46:52.575Z,15.63
2023-04-08T09:49:25.987Z,13.43
2023-04-08T09:52:11.589Z,11.05
2023-04-08T09:54:55.837Z,15.73
2023-04-08T09:57:49.820Z,11.52
2023-04-08T10:00:18.319Z,13.00
2023-04-08T10:03:14.733Z,11.90
2023-04-08T10:05:44.049Z,12.35
2023-04-08T10:08:11.553Z,12.90
2023-04-08T10:10:43.082Z,15.13
2023-04-08T10:13:10.740Z,12.63
2023-04-08T10:15:40.772Z,13.45
2023-04-08T10:18:10.370Z,12.02
2023-04-08T10:20:37.465Z,11.30
2023-04-08T10:23:13.734Z,12.30
2023-04-08T10:25:48.562Z,11.57
2023-04-08T10:28:17.549Z,12.25
2023-04-08T10:30:48.337Z,11.07
2023-04-08T10:33:31.354Z,12.02
2023-04-08T10:36:07.526Z,12.45
2023-04-08T10:38:34.633Z,13.45
2023-04-08T10:41:02.467Z,10.68
2023-04-08T10:43:34.690Z,11.63
2023-04-08T10:46:02.044Z,11.57
2023-04-08T10:48:29.214Z,12.10
2023-04-08T10:51:01.995Z,10.35
2023-04-08T10:53:42.004Z,10.88
2023-04-08T10:56:17.647Z,10.80
2023-04-08T10:58:58.990Z,10.50
2023-04-08T11:01:27.055Z,10.90
2023-04-08T11:03:54.152Z,9.90
2023-04-08T11:06:21.220Z,10.07
2023-04-08T11:08:48.132Z,12.18
2023-04-08T11:11:15.326Z,11.57
2023-04-08T11:13:52.557Z,11.73
2023-04-08T11:16:22.742Z,10.43
2023-04-08T11:18:51.463Z,10.38
2023-04-08T11:21:19.369Z,11.38
2023-04-08T11:23:49.965Z,12.82
2023-04-08T11:26:18.015Z,10.88
2023-04-08T11:28:45.783Z,10.38
2023-04-08T11:31:13.464Z,10.80
2023-04-08T11:33:49.595Z,9.80
2023-04-08T11:36:18.763Z,10.20
2023-04-08T11:38:47.776Z,10.35
2023-04-08T11:41:15.713Z,9.98
2023-04-08T11:43:53.009Z,9.90
2023-04-08T11:46:20.529Z,10.90
2023-04-08T11:49:13.824Z,12.13
2023-04-08T11:52:00.250Z,12.30
2023-04-08T11:54:29.005Z,10.73
2023-04-08T11:56:58.388Z,12.82
2023-04-08T11:59:28.785Z,12.88
2023-04-08T12:01:56.336Z,12.85
2023-04-08T12:04:23.423Z,12.90
2023-04-08T12:06:50.353Z,12.95
2023-04-08T12:09:17.570Z,12.13
2023-04-08T12:11:44.557Z,13.18
2023-04-08T12:14:11.357Z,11.25
2023-04-08T12:16:38.457Z,11.38
2023-04-08T12:19:05.371Z,11.98
2023-04-08T12:21:33.846Z,14.45
2023-04-08T12:24:01.595Z,13.05
2023-04-08T12:26:28.374Z,11.75
2023-04-08T12:28:55.097Z,10.98
2023-04-08T12:31:22.665Z,11.45
2023-04-08T12:33:49.588Z,13.70
2023-04-08T12:36:17.215Z,17.33
2023-04-08T12:38:44.170Z,12.57
2023-04-08T12:41:11.072Z,13.43
2023-04-08T12:43:38.952Z,13.25
2023-04-08T12:46:06.025Z,11.52
2023-04-08T12:48:33.120Z,14.18
2023-04-08T12:50:59.902Z,11.45
2023-04-08T12:53:26.860Z,13.10
2023-04-08T12:55:57.108Z,13.98
2023-04-08T12:58:25.608Z,14.00
2023-04-08T13:00:52.780Z,12.40
2023-04-08T13:03:19.829Z,12.55
2023-04-08T13:05:46.876Z,12.48
2023-04-08T13:08:13.730Z,12.73
2023-04-08T13:10:42.784Z,12.00
2023-04-08T13:13:09.640Z,13.65
2023-04-08T13:15:36.885Z,13.35
2023-04-08T13:18:04.788Z,12.07
2023-04-08T13:20:31.925Z,11.80
2023-04-08T13:23:00.530Z,11.25
2023-04-08T13:25:27.691Z,11.23
2023-04-08T13:27:54.413Z,14.52
2023-04-08T13:30:21.362Z,12.70
2023-04-08T13:32:48.252Z,12.23
2023-04-08T13:35:15.137Z,13.68
2023-04-08T13:37:42.214Z,13.50
2023-04-08T13:40:09.777Z,13.13
2023-04-08T13:42:37.367Z,15.02
2023-04-08T13:45:04.679Z,10.80
2023-04-08T13:47:31.443Z,13.20
2023-04-08T13:49:58.263Z,12.07
2023-04-08T13:52:25.150Z,11.63
2023-04-08T13:54:51.950Z,13.05
2023-04-08T13:57:18.712Z,12.80
2023-04-08T13:59:45.608Z,11.98
2023-04-08T14:02:12.920Z,11.23
2023-04-08T14:04:40.337Z,14.05
2023-04-08T14:07:07.327Z,12.85
2023-04-08T14:09:34.245Z,12.38
2023-04-08T14:12:01.261Z,11.80
2023-04-08T14:14:28.103Z,11.52
2023-04-08T14:16:54.962Z,13.32
2023-04-08T14:19:21.842Z,10.18
2023-04-08T14:21:48.765Z,11.35
2023-04-08T14:24:16.211Z,12.48
2023-04-08T14:26:43.379Z,11.20
2023-04-08T14:29:10.349Z,11.23
2023-04-08T14:31:37.572Z,11.05
2023-04-08T14:34:04.998Z,12.73
2023-04-08T14:36:32.865Z,11.70
2023-04-08T14:39:00.171Z,13.25
2023-04-08T14:41:27.165Z,14.82
2023-04-08T14:43:54.431Z,11.38
2023-04-08T14:46:21.678Z,13.88
2023-04-08T14:48:48.996Z,13.20
2023-04-08T14:51:16.064Z,12.73
2023-04-08T14:53:42.865Z,15.60
2023-04-08T14:56:10.063Z,14.52
2023-04-08T14:58:37.124Z,14.82
2023-04-08T15:01:04.665Z,15.77
2023-04-08T15:03:31.666Z,14.10
2023-04-08T15:05:59.741Z,14.38
2023-04-08T15:08:26.676Z,14.95
2023-04-08T15:10:53.571Z,13.25
2023-04-08T15:13:20.357Z,12.48
2023-04-08T15:15:47.240Z,13.50
2023-04-08T15:18:14.170Z,12.85
2023-04-08T15:20:41.458Z,13.68
2023-04-08T15:23:08.350Z,15.20
2023-04-08T15:25:35.210Z,12.75
2023-04-08T15:28:02.682Z,11.57
2023-04-08T15:30:34.993Z,13.30
2023-04-08T15:33:05.269Z,14.32
2023-04-08T15:35:32.912Z,14.38
2023-04-08T15:38:00.633Z,14.60
2023-04-08T15:40:27.749Z,14.75
2023-04-08T15:42:54.669Z,14.65
2023-04-08T15:45:22.172Z,16.75
2023-04-08T15:47:49.174Z,14.70
2023-04-08T15:50:17.246Z,15.48
2023-04-08T15:52:44.700Z,15.13
2023-04-08T15:55:11.922Z,15.70
2023-04-08T15:57:38.940Z,15.68
2023-04-08T16:00:13.892Z,15.15
2023-04-08T16:02:42.245Z,15.07
2023-04-08T16:05:09.653Z,15.55
2023-04-08T16:07:37.303Z,13.07
2023-04-08T16:10:04.705Z,15.27
2023-04-08T16:12:32.321Z,14.88
2023-04-08T16:14:59.122Z,13.90
2023-04-08T16:17:27.429Z,15.73
2023-04-08T16:19:54.236Z,14.85
2023-04-08T16:22:21.089Z,15.65
2023-04-08T16:24:47.838Z,15.77
2023-04-08T16:27:14.697Z,13.35
2023-04-08T16:29:42.117Z,15.32
2023-04-08T16:32:09.061Z,13.60
2023-04-08T16:34:36.129Z,13.85
2023-04-08T16:37:03.109Z,13.82
2023-04-08T16:39:30.000Z,12.05
2023-04-08T16:41:56.800Z,13.25
2023-04-08T16:44:23.806Z,13.75
2023-04-08T16:46:50.682Z,13.45
2023-04-08T16:49:18.390Z,14.88
2023-04-08T16:51:45.443Z,15.68
2023-04-08T16:54:12.246Z,13.65
2023-04-08T16:56:44.065Z,16.33
2023-04-08T16:59:11.839Z,15.30
2023-04-08T17:01:38.912Z,14.13
2023-04-08T17:04:05.904Z,17.48
2023-04-08T17:06:35.610Z,17.63
2023-04-08T17:09:03.941Z,17.35
2023-04-08T17:11:31.290Z,16.10
2023-04-08T17:13:58.546Z,17.10
2023-04-08T17:16:25.386Z,16.92
2023-04-08T17:18:52.528Z,17.65
2023-04-08T17:21:21.148Z,16.00
2023-04-08T17:23:48.095Z,17.17
2023-04-08T17:26:14.922Z,15.93
2023-04-08T17:28:41.841Z,17.27
2023-04-08T17:31:09.790Z,17.70
2023-04-08T17:33:37.066Z,15.85
2023-04-08T17:36:04.201Z,16.15
2023-04-08T17:38:32.236Z,17.60
2023-04-08T17:40:59.248Z,18.05
2023-04-08T17:43:26.321Z,16.15
2023-04-08T17:45:53.315Z,16.42
2023-04-08T17:48:20.216Z,17.63
2023-04-08T17:50:47.193Z,16.15
2023-04-08T17:53:14.018Z,17.70
2023-04-08T17:55:40.926Z,17.05
2023-04-08T17:58:07.836Z,16.80
2023-04-08T18:00:34.741Z,18.45
2023-04-08T18:03:01.712Z,16.35
2023-04-08T18:05:29.962Z,16.83
2023-04-08T18:07:58.145Z,15.02
2023-04-08T18:10:25.044Z,18.90
2023-04-08T18:13:00.551Z,18.13
2023-04-08T18:15:36.129Z,19.15
2023-04-08T18:18:03.768Z,20.35
2023-04-08T18:20:30.983Z,21.95
2023-04-08T18:23:00.111Z,17.50
2023-04-08T18:25:27.387Z,18.30
2023-04-08T18:27:54.224Z,19.75
2023-04-08T18:30:21.054Z,17.00
2023-04-08T18:32:47.832Z,18.20
2023-04-08T18:35:14.611Z,18.83
2023-04-08T18:37:41.579Z,19.58
2023-04-08T18:40:09.389Z,17.45
2023-04-08T18:42:36.183Z,18.40
2023-04-08T18:45:03.101Z,18.17
2023-04-08T18:47:29.884Z,18.40
2023-04-08T18:49:57.133Z,19.02
2023-04-08T18:52:24.134Z,20.73
2023-04-08T18:54:50.922Z,21.70
2023-04-08T18:57:17.712Z,19.30
2023-04-08T18:59:48.333Z,19.08
2023-04-08T19:02:16.291Z,20.42
2023-04-08T19:04:43.201Z,23.33
2023-04-08T19:07:10.718Z,21.80
2023-04-08T19:09:37.568Z,23.42
2023-04-08T19:12:04.535Z,23.58
2023-04-08T19:14:31.514Z,22.70
2023-04-08T19:16:58.261Z,22.75
2023-04-08T19:19:25.030Z,25.98
2023-04-08T19:21:51.795Z,25.60
2023-04-08T19:24:20.688Z,24.27
2023-04-08T19:26:49.303Z,23.77
2023-04-08T19:29:16.082Z,20.77
2023-04-08T19:31:43.127Z,21.38
2023-04-08T19:34:10.208Z,23.48
2023-04-08T19:36:36.992Z,21.67
2023-04-08T19:39:04.793Z,20.50
2023-04-08T19:41:31.785Z,19.73
2023-04-08T19:43:58.517Z,19.38
2023-04-08T19:46:25.478Z,19.45
2023-04-08T19:48:53.055Z,20.05
2023-04-08T19:51:22.511Z,23.17
2023-04-08T19:53:52.253Z,19.45
2023-04-08T19:56:19.778Z,21.30
2023-04-08T19:58:46.660Z,23.15
2023-04-08T20:01:14.129Z,22.10
2023-04-08T20:03:49.794Z,21.40
2023-04-08T20:06:19.884Z,25.05
2023-04-08T20:08:46.776Z,22.48
2023-04-08T20:11:14.250Z,21.75
2023-04-08T20:13:41.189Z,20.58
2023-04-08T20:16:08.165Z,21.75
2023-04-08T20:18:35.033Z,22.73
2023-04-08T20:21:01.810Z,21.02
2023-04-08T20:23:28.596Z,19.92
2023-04-08T20:25:56.663Z,19.88
2023-04-08T20:28:23.662Z,20.55
2023-04-08T20:30:51.603Z,20.30
2023-04-08T20:33:19.150Z,20.88
2023-04-08T20:35:46.657Z,21.48
2023-04-08T20:38:13.545Z,21.95
2023-04-08T20:40:44.056Z,22.40
2023-04-08T20:43:11.319Z,20.33
2023-04-08T20:45:38.165Z,22.85
2023-04-08T20:48:05.710Z,21.40
2023-04-08T20:50:32.777Z,22.92
2023-04-08T20:52:59.789Z,22.48
2023-04-08T20:55:26.642Z,21.15
2023-04-08T20:57:53.550Z,22.77
2023-04-08T21:00:20.547Z,18.20
2023-04-08T21:02:47.962Z,24.00
2023-04-08T21:05:15.456Z,23.50
2023-04-08T21:07:44.591Z,21.30
2023-04-08T21:10:14.920Z,21.50
2023-04-08T21:12:41.664Z,23.08
2023-04-08T21:15:09.372Z,22.60
2023-04-08T21:17:36.224Z,22.17
2023-04-08T21:20:04.453Z,22.58
2023-04-08T21:22:32.186Z,22.10
2023-04-08T21:24:58.941Z,22.65
2023-04-08T21:27:25.692Z,24.33
2023-04-08T21:29:52.683Z,21.58
2023-04-08T21:32:19.901Z,22.42
2023-04-08T21:34:46.893Z,25.23
2023-04-08T21:37:13.725Z,25.98
2023-04-08T21:39:40.732Z,25.25
2023-04-08T21:42:07.551Z,23.48
2023-04-08T21:44:34.517Z,24.92
2023-04-08T21:47:02.011Z,24.80
2023-04-08T21:49:32.266Z,24.77
2023-04-08T21:51:59.146Z,23.83
2023-04-08T21:54:25.939Z,24.50
2023-04-08T21:56:52.764Z,24.38
2023-04-08T21:59:19.919Z,25.75
2023-04-08T22:01:46.866Z,21.52
2023-04-08T22:04:13.844Z,22.75
2023-04-08T22:06:40.972Z,23.38
2023-04-08T22:09:08.046Z,25.45
2023-04-08T22:11:34.803Z,26.65
2023-04-08T22:14:01.548Z,28.27
2023-04-08T22:16:28.475Z,27.75
2023-04-08T22:18:55.281Z,25.42
2023-04-08T22:21:22.619Z,23.38
2023-04-08T22:23:49.714Z,25.08
2023-04-08T22:26:16.624Z,22.83
2023-04-08T22:28:44.386Z,22.85
2023-04-08T22:31:12.638Z,22.92
2023-04-08T22:33:39.900Z,25.83
2023-04-08T22:36:06.886Z,22.63
2023-04-08T22:38:34.124Z,23.30
2023-04-08T22:41:01.206Z,25.35
2023-04-08T22:43:28.164Z,24.70
2023-04-08T22:45:55.309Z,23.33
2023-04-08T22:48:22.160Z,25.42
2023-04-08T22:50:48.926Z,20.90
2023-04-08T22:53:15.733Z,25.35
2023-04-08T22:55:42.556Z,21.88
2023-04-08T22:58:09.353Z,21.90
2023-04-08T23:00:36.138Z,22.40
2023-04-08T23:03:04.721Z,23.45
2023-04-08T23:05:31.860Z,25.23
2023-04-08T23:07:58.637Z,23.83
2023-04-08T23:10:25.399Z,23.42
2023-04-08T23:12:52.379Z,27.40
2023-04-08T23:15:19.218Z,25.17
2023-04-08T23:17:46.053Z,25.15
2023-04-08T23:20:13.196Z,28.17
2023-04-08T23:22:39.989Z,26.05
2023-04-08T23:25:07.848Z,23.52
2023-04-08T23:27:34.846Z,25.42
2023-04-08T23:30:05.555Z,24.98
2023-04-08T23:32:33.542Z,23.67
2023-04-08T23:35:02.029Z,24.35
2023-04-08T23:37:29.811Z,24.30
2023-04-08T23:39:56.580Z,26.67
2023-04-08T23:42:27.060Z,26.52
2023-04-08T23:44:55.216Z,25.88
2023-04-08T23:47:22.464Z,29.20
2023-04-08T23:49:49.412Z,27.35
2023-04-08T23:52:16.282Z,29.08
2023-04-08T23:54:43.096Z,25.42
2023-04-08T23:57:09.885Z,26.25
2023-04-08T23:59:36.674Z,27.77
